createdAt,value
2018-05-29T00:00:12.896Z,99913.77
2018-05-29T00:00:44.048Z,99913.62
2018-05-29T00:01:15.163Z,99918.43
2018-05-29T00:01:47.096Z,99920.05
2018-05-29T00:02:18.240Z,99916.91
2018-05-29T00:02:49.353Z,99916.91
2018-05-29T00:03:20.472Z,99916.09
2018-05-29T00:03:51.584Z,99920.09
2018-05-29T00:04:22.703Z,99915.25
2018-05-29T00:04:53.824Z,99917.84
2018-05-29T00:05:24.939Z,99923.08
2018-05-29T00:05:56.056Z,99912.56
2018-05-29T00:06:27.177Z,99922.20
2018-05-29T00:06:58.300Z,99916.43
2018-05-29T00:07:29.453Z,99918.97
2018-05-29T00:08:00.609Z,99912.70
2018-05-29T00:08:31.720Z,99917.46
2018-05-29T00:09:02.832Z,99919.08
2018-05-29T00:09:33.944Z,99913.69
2018-05-29T00:10:05.062Z,99913.12
2018-05-29T00:10:36.226Z,99912.77
2018-05-29T00:11:07.395Z,99913.16
2018-05-29T00:11:38.516Z,99910.47
2018-05-29T00:12:09.632Z,99912.09
2018-05-29T00:12:40.755Z,99910.23
2018-05-29T00:13:11.941Z,99906.56
2018-05-29T00:13:43.056Z,99909.55
2018-05-29T00:14:14.181Z,99912.09
2018-05-29T00:14:45.296Z,99907.16
2018-05-29T00:15:16.444Z,99903.67
2018-05-29T00:15:47.633Z,99904.21
2018-05-29T00:16:18.752Z,99904.31
2018-05-29T00:16:49.871Z,99899.52
2018-05-29T00:17:21.020Z,99902.69
2018-05-29T00:17:52.137Z,99900.63
2018-05-29T00:18:23.316Z,99898.62
2018-05-29T00:18:54.427Z,99891.23
2018-05-29T00:19:25.564Z,99897.40
2018-05-29T00:19:56.688Z,99893.34
2018-05-29T00:20:27.802Z,99892.06
2018-05-29T00:20:59.492Z,99894.20
2018-05-29T00:21:30.620Z,99896.84
2018-05-29T00:22:01.796Z,99895.58
2018-05-29T00:22:32.951Z,99896.41
2018-05-29T00:23:04.066Z,99897.88
2018-05-29T00:23:35.201Z,99899.73
2018-05-29T00:24:06.330Z,99898.61
2018-05-29T00:24:37.448Z,99900.61
2018-05-29T00:25:08.561Z,99900.36
2018-05-29T00:25:39.679Z,99905.88
2018-05-29T00:26:10.821Z,99904.25
2018-05-29T00:26:41.940Z,99900.39
2018-05-29T00:27:13.887Z,99898.72
2018-05-29T00:27:45.087Z,99898.42
2018-05-29T00:28:16.200Z,99896.35
2018-05-29T00:28:47.316Z,99894.20
2018-05-29T00:29:18.441Z,99897.28
2018-05-29T00:29:49.559Z,99894.25
2018-05-29T00:30:20.692Z,99895.96
2018-05-29T00:30:51.806Z,99901.65
2018-05-29T00:31:22.967Z,99900.33
2018-05-29T00:31:54.088Z,99909.31
2018-05-29T00:32:25.204Z,99909.89
2018-05-29T00:32:56.383Z,99910.30
2018-05-29T00:33:27.497Z,99908.56
2018-05-29T00:33:58.683Z,99912.19
2018-05-29T00:34:29.792Z,99914.76
2018-05-29T00:35:00.910Z,99913.28
2018-05-29T00:35:32.025Z,99914.20
2018-05-29T00:36:03.141Z,99919.92
2018-05-29T00:36:34.312Z,99914.78
2018-05-29T00:37:05.432Z,99912.23
2018-05-29T00:37:36.544Z,99908.33
2018-05-29T00:38:07.703Z,99911.15
2018-05-29T00:38:38.827Z,99909.44
2018-05-29T00:39:09.940Z,99911.73
2018-05-29T00:39:41.100Z,99912.35
2018-05-29T00:40:12.224Z,99910.42
2018-05-29T00:40:43.337Z,99909.15
2018-05-29T00:41:14.452Z,99911.56
2018-05-29T00:41:45.615Z,99909.20
2018-05-29T00:42:16.768Z,99904.64
2018-05-29T00:42:47.891Z,99901.20
2018-05-29T00:43:19.009Z,99906.13
2018-05-29T00:43:50.124Z,99905.83
2018-05-29T00:44:21.287Z,99899.81
2018-05-29T00:44:52.463Z,99897.30
2018-05-29T00:45:23.585Z,99900.73
2018-05-29T00:45:54.710Z,99905.92
2018-05-29T00:46:25.859Z,99905.93
2018-05-29T00:46:57.011Z,99909.23
2018-05-29T00:47:28.135Z,99902.33
2018-05-29T00:47:59.247Z,99903.50
2018-05-29T00:48:30.400Z,99904.82
2018-05-29T00:49:01.520Z,99904.03
2018-05-29T00:49:32.653Z,99908.73
2018-05-29T00:50:03.768Z,99906.94
2018-05-29T00:50:34.900Z,99906.88
2018-05-29T00:51:06.024Z,99907.90
2018-05-29T00:51:37.175Z,99909.34
2018-05-29T00:52:08.308Z,99906.97
2018-05-29T00:52:39.419Z,99911.48
2018-05-29T00:53:10.540Z,99909.27
2018-05-29T00:53:41.666Z,99908.56
2018-05-29T00:54:12.796Z,99911.66
2018-05-29T00:54:43.957Z,99912.93
2018-05-29T00:55:15.092Z,99913.09
2018-05-29T00:55:46.214Z,99915.30
2018-05-29T00:56:17.331Z,99912.52
2018-05-29T00:56:48.458Z,99912.80
2018-05-29T00:57:19.579Z,99916.52
2018-05-29T00:57:50.719Z,99914.73
2018-05-29T00:58:21.828Z,99919.33
2018-05-29T00:58:53.005Z,99913.50
2018-05-29T00:59:24.127Z,99919.41
2018-05-29T00:59:55.261Z,99918.57
2018-05-29T01:00:26.384Z,99917.77
2018-05-29T01:00:57.536Z,99914.30
2018-05-29T01:01:28.648Z,99918.01
2018-05-29T01:01:59.811Z,99912.75
2018-05-29T01:02:30.928Z,99912.55
2018-05-29T01:03:02.060Z,99912.11
2018-05-29T01:03:33.184Z,99916.89
2018-05-29T01:04:04.302Z,99911.27
2018-05-29T01:04:35.424Z,99909.87
2018-05-29T01:05:06.541Z,99909.03
2018-05-29T01:05:37.724Z,99907.56
2018-05-29T01:06:08.904Z,99910.59
2018-05-29T01:06:40.089Z,99909.28
2018-05-29T01:07:11.297Z,99910.03
2018-05-29T01:07:42.478Z,99908.36
2018-05-29T01:08:13.600Z,99908.91
2018-05-29T01:08:44.718Z,99908.59
2018-05-29T01:09:15.892Z,99909.39
2018-05-29T01:09:47.074Z,99906.20
2018-05-29T01:10:18.305Z,99896.03
2018-05-29T01:10:49.513Z,99900.50
2018-05-29T01:11:20.698Z,99906.33
2018-05-29T01:11:51.877Z,99905.88
2018-05-29T01:12:23.055Z,99902.77
2018-05-29T01:12:54.232Z,99905.16
2018-05-29T01:13:25.428Z,99903.37
2018-05-29T01:13:56.597Z,99900.73
2018-05-29T01:14:27.770Z,99903.45
2018-05-29T01:14:58.953Z,99900.97
2018-05-29T01:15:30.168Z,99902.77
2018-05-29T01:16:01.352Z,99903.25
2018-05-29T01:16:32.533Z,99903.69
2018-05-29T01:17:03.713Z,99902.37
2018-05-29T01:17:34.889Z,99893.16
2018-05-29T01:18:06.060Z,99893.64
2018-05-29T01:18:37.242Z,99897.66
2018-05-29T01:19:08.412Z,99899.94
2018-05-29T01:19:39.592Z,99899.77
2018-05-29T01:20:10.767Z,99906.14
2018-05-29T01:20:41.985Z,99903.11
2018-05-29T01:21:13.217Z,99902.75
2018-05-29T01:21:44.385Z,99904.39
2018-05-29T01:22:15.661Z,99902.72
2018-05-29T01:22:46.846Z,99893.94
2018-05-29T01:23:18.028Z,99895.26
2018-05-29T01:23:49.205Z,99894.82
2018-05-29T01:24:20.386Z,99897.93
2018-05-29T01:24:51.566Z,99895.22
2018-05-29T01:25:22.753Z,99897.38
2018-05-29T01:25:53.969Z,99899.48
2018-05-29T01:26:25.164Z,99901.17
2018-05-29T01:26:56.336Z,99903.55
2018-05-29T01:27:27.509Z,99905.06
2018-05-29T01:27:58.685Z,99908.12
2018-05-29T01:28:29.917Z,99902.64
2018-05-29T01:29:01.100Z,99904.11
2018-05-29T01:29:32.283Z,99901.77
2018-05-29T01:30:03.461Z,99898.22
2018-05-29T01:30:34.647Z,99900.77
2018-05-29T01:31:05.858Z,99902.77
2018-05-29T01:31:37.041Z,99896.16
2018-05-29T01:32:08.229Z,99898.75
2018-05-29T01:32:39.408Z,99896.88
2018-05-29T01:33:10.630Z,99900.13
2018-05-29T01:33:41.842Z,99895.70
2018-05-29T01:34:13.029Z,99899.48
2018-05-29T01:34:44.205Z,99903.59
2018-05-29T01:35:15.383Z,99898.25
2018-05-29T01:35:46.563Z,99892.39
2018-05-29T01:36:17.744Z,99891.08
2018-05-29T01:36:48.965Z,99890.60
2018-05-29T01:37:20.169Z,99885.34
2018-05-29T01:37:51.345Z,99895.09
2018-05-29T01:38:22.524Z,99901.45
2018-05-29T01:38:53.717Z,99891.64
2018-05-29T01:39:24.902Z,99895.47
2018-05-29T01:39:56.078Z,99900.02
2018-05-29T01:40:27.257Z,99901.01
2018-05-29T01:40:58.455Z,99901.33
2018-05-29T01:41:29.644Z,99899.66
2018-05-29T01:42:00.896Z,99901.81
2018-05-29T01:42:32.071Z,99901.48
2018-05-29T01:43:03.250Z,99893.95
2018-05-29T01:43:34.427Z,99890.88
2018-05-29T01:44:05.679Z,99890.52
2018-05-29T01:44:36.859Z,99890.96
2018-05-29T01:45:08.033Z,99892.39
2018-05-29T01:45:39.213Z,99891.52
2018-05-29T01:46:10.398Z,99892.35
2018-05-29T01:46:41.576Z,99894.87
2018-05-29T01:47:12.749Z,99900.49
2018-05-29T01:47:43.957Z,99894.80
2018-05-29T01:48:15.134Z,99895.23
2018-05-29T01:48:46.313Z,99897.91
2018-05-29T01:49:17.508Z,99902.36
2018-05-29T01:49:48.685Z,99897.14
2018-05-29T01:50:19.899Z,99898.17
2018-05-29T01:50:51.077Z,99899.24
2018-05-29T01:51:22.258Z,99900.72
2018-05-29T01:51:53.453Z,99896.05
2018-05-29T01:52:24.632Z,99896.96
2018-05-29T01:52:55.825Z,99893.49
2018-05-29T01:53:27.054Z,99895.64
2018-05-29T01:53:58.229Z,99897.84
2018-05-29T01:54:29.414Z,99896.08
2018-05-29T01:55:00.588Z,99894.77
2018-05-29T01:55:31.760Z,99895.65
2018-05-29T01:56:02.942Z,99891.30
2018-05-29T01:56:34.114Z,99888.23
2018-05-29T01:57:05.376Z,99890.38
2018-05-29T01:57:36.560Z,99892.53
2018-05-29T01:58:07.744Z,99890.78
2018-05-29T01:58:38.971Z,99888.19
2018-05-29T01:59:10.192Z,99894.77
2018-05-29T01:59:41.416Z,99893.49
2018-05-29T02:00:12.598Z,99896.20
2018-05-29T02:00:43.780Z,99896.31
2018-05-29T02:01:14.957Z,99893.77
2018-05-29T02:01:46.129Z,99894.50
2018-05-29T02:02:17.341Z,99893.08
2018-05-29T02:02:48.516Z,99899.36
2018-05-29T02:03:19.701Z,99899.00
2018-05-29T02:03:50.876Z,99892.02
2018-05-29T02:04:22.187Z,99892.54
2018-05-29T02:04:53.343Z,99891.66
2018-05-29T02:05:24.521Z,99891.59
2018-05-29T02:05:55.704Z,99896.37
2018-05-29T02:06:26.942Z,99892.46
2018-05-29T02:06:58.116Z,99887.27
2018-05-29T02:07:29.320Z,99891.70
2018-05-29T02:08:00.501Z,99888.67
2018-05-29T02:08:31.685Z,99895.32
2018-05-29T02:09:02.870Z,99895.80
2018-05-29T02:09:34.055Z,99894.19
2018-05-29T02:10:05.236Z,99843.25
2018-05-29T02:10:36.417Z,99896.53
2018-05-29T02:11:07.599Z,99898.04
2018-05-29T02:11:38.813Z,99893.25
2018-05-29T02:12:10.025Z,99894.53
2018-05-29T02:12:41.217Z,99898.08
2018-05-29T02:13:12.396Z,99892.05
2018-05-29T02:13:43.578Z,99896.50
2018-05-29T02:14:14.761Z,99894.34
2018-05-29T02:14:46.004Z,99890.45
2018-05-29T02:15:17.186Z,99890.23
2018-05-29T02:15:48.383Z,99894.28
2018-05-29T02:16:19.563Z,99895.20
2018-05-29T02:16:50.745Z,99895.67
2018-05-29T02:17:21.927Z,99895.27
2018-05-29T02:17:53.104Z,99893.12
2018-05-29T02:18:24.276Z,99893.59
2018-05-29T02:18:55.453Z,99889.20
2018-05-29T02:19:26.641Z,99900.64
2018-05-29T02:19:57.858Z,99890.23
2018-05-29T02:20:29.041Z,99897.75
2018-05-29T02:21:00.216Z,99893.41
2018-05-29T02:21:31.398Z,99890.81
2018-05-29T02:22:02.581Z,99896.11
2018-05-29T02:22:33.809Z,99900.63
2018-05-29T02:23:04.997Z,99894.98
2018-05-29T02:23:36.178Z,99895.05
2018-05-29T02:24:07.357Z,99892.42
2018-05-29T02:24:38.536Z,99897.71
2018-05-29T02:25:09.716Z,99898.66
2018-05-29T02:25:40.946Z,99896.55
2018-05-29T02:26:12.125Z,99894.46
2018-05-29T02:26:43.346Z,99898.51
2018-05-29T02:27:14.521Z,99902.13
2018-05-29T02:27:45.704Z,99902.59
2018-05-29T02:28:16.886Z,99904.49
2018-05-29T02:28:48.069Z,99898.87
2018-05-29T02:29:19.289Z,99900.66
2018-05-29T02:29:50.472Z,99895.95
2018-05-29T02:30:21.667Z,99903.39
2018-05-29T02:30:52.864Z,99899.41
2018-05-29T02:31:24.061Z,99904.30
2018-05-29T02:31:55.245Z,99903.46
2018-05-29T02:32:26.433Z,99904.73
2018-05-29T02:32:57.630Z,99901.67
2018-05-29T02:33:28.802Z,99902.55
2018-05-29T02:33:59.983Z,99899.48
2018-05-29T02:34:31.201Z,99906.45
2018-05-29T02:35:02.383Z,99899.05
2018-05-29T02:35:33.582Z,99906.23
2018-05-29T02:36:04.771Z,99905.09
2018-05-29T02:36:35.986Z,99907.02
2018-05-29T02:37:07.164Z,99905.84
2018-05-29T02:37:38.341Z,99906.89
2018-05-29T02:38:09.530Z,99905.75
2018-05-29T02:38:40.707Z,99903.70
2018-05-29T02:39:11.896Z,99910.80
2018-05-29T02:39:43.156Z,99908.65
2018-05-29T02:40:14.342Z,99904.48
2018-05-29T02:40:45.525Z,99910.56
2018-05-29T02:41:16.738Z,99917.20
2018-05-29T02:41:47.914Z,99918.55
2018-05-29T02:42:19.106Z,99919.02
2018-05-29T02:42:50.297Z,99916.56
2018-05-29T02:43:21.502Z,99916.59
2018-05-29T02:43:52.716Z,99918.34
2018-05-29T02:44:23.897Z,99924.87
2018-05-29T02:44:55.075Z,99921.23
2018-05-29T02:45:26.256Z,99922.05
2018-05-29T02:45:57.437Z,99921.98
2018-05-29T02:46:28.617Z,99920.20
2018-05-29T02:46:59.797Z,99921.41
2018-05-29T02:47:30.989Z,99925.68
2018-05-29T02:48:02.169Z,99920.80
2018-05-29T02:48:33.424Z,99925.52
2018-05-29T02:49:04.616Z,99927.63
2018-05-29T02:49:35.844Z,99925.37
2018-05-29T02:50:07.028Z,99929.18
2018-05-29T02:50:38.217Z,99927.33
2018-05-29T02:51:09.405Z,99922.88
2018-05-29T02:51:40.594Z,99927.29
2018-05-29T02:52:11.776Z,99932.07
2018-05-29T02:52:42.957Z,99929.01
2018-05-29T02:53:14.133Z,99927.19
2018-05-29T02:53:45.314Z,99925.47
2018-05-29T02:54:16.501Z,99926.45
2018-05-29T02:54:47.728Z,99923.42
2018-05-29T02:55:19.221Z,99921.20
2018-05-29T02:55:50.464Z,99923.02
2018-05-29T02:56:21.646Z,99929.66
2018-05-29T02:56:52.825Z,99930.53
2018-05-29T02:57:24.014Z,99927.47
2018-05-29T02:57:55.200Z,99932.31
2018-05-29T02:58:26.408Z,99926.95
2018-05-29T02:58:57.585Z,99925.98
2018-05-29T02:59:28.769Z,99929.81
2018-05-29T02:59:59.976Z,99929.78
2018-05-29T03:00:31.157Z,99926.68
2018-05-29T03:01:02.390Z,99929.24
2018-05-29T03:01:33.606Z,99926.61
2018-05-29T03:02:04.787Z,99928.84
2018-05-29T03:02:35.965Z,99930.69
2018-05-29T03:03:07.165Z,99930.63
2018-05-29T03:03:38.394Z,99928.88
2018-05-29T03:04:09.576Z,99930.99
2018-05-29T03:04:40.756Z,99932.23
2018-05-29T03:05:11.976Z,99930.02
2018-05-29T03:05:43.149Z,99929.91
2018-05-29T03:06:14.387Z,99931.19
2018-05-29T03:06:45.597Z,99931.08
2018-05-29T03:07:16.771Z,99930.20
2018-05-29T03:07:47.994Z,99929.62
2018-05-29T03:08:19.176Z,99925.14
2018-05-29T03:08:50.420Z,99931.50
2018-05-29T03:09:21.598Z,99927.82
2018-05-29T03:09:52.791Z,99927.72
2018-05-29T03:10:23.977Z,99927.17
2018-05-29T03:10:55.157Z,99922.31
2018-05-29T03:11:26.424Z,99922.35
2018-05-29T03:11:57.605Z,99930.78
2018-05-29T03:12:28.794Z,99932.30
2018-05-29T03:12:59.973Z,99927.16
2018-05-29T03:13:31.195Z,99924.74
2018-05-29T03:14:02.465Z,99932.73
2018-05-29T03:14:33.643Z,99925.36
2018-05-29T03:15:04.870Z,99930.24
2018-05-29T03:15:36.056Z,99929.14
2018-05-29T03:16:07.236Z,99929.72
2018-05-29T03:16:38.421Z,99931.42
2018-05-29T03:17:09.640Z,99931.46
2018-05-29T03:17:40.818Z,99935.23
2018-05-29T03:18:12.006Z,99929.47
2018-05-29T03:18:43.341Z,99927.28
2018-05-29T03:19:14.538Z,99934.76
2018-05-29T03:19:45.728Z,99932.20
2018-05-29T03:20:16.912Z,99933.14
2018-05-29T03:20:48.101Z,99925.30
2018-05-29T03:21:19.291Z,99938.00
2018-05-29T03:21:50.473Z,99929.20
2018-05-29T03:22:21.659Z,99931.83
2018-05-29T03:22:52.849Z,99933.05
2018-05-29T03:23:24.025Z,99932.43
2018-05-29T03:23:55.291Z,99935.62
2018-05-29T03:24:26.473Z,99926.17
2018-05-29T03:24:57.662Z,99927.43
2018-05-29T03:25:28.851Z,99930.32
2018-05-29T03:26:00.032Z,99930.98
2018-05-29T03:26:31.245Z,99924.14
2018-05-29T03:27:02.472Z,99929.02
2018-05-29T03:27:33.652Z,99925.09
2018-05-29T03:28:04.834Z,99926.14
2018-05-29T03:28:36.021Z,99931.94
2018-05-29T03:29:07.220Z,99925.71
2018-05-29T03:29:38.403Z,99927.70
2018-05-29T03:30:09.585Z,99928.36
2018-05-29T03:30:40.767Z,99923.94
2018-05-29T03:31:11.960Z,99923.30
2018-05-29T03:31:43.188Z,99925.47
2018-05-29T03:32:14.369Z,99924.91
2018-05-29T03:32:45.552Z,99922.50
2018-05-29T03:33:16.731Z,99921.00
2018-05-29T03:33:47.913Z,99925.22
2018-05-29T03:34:19.157Z,99920.94
2018-05-29T03:34:50.360Z,99924.80
2018-05-29T03:35:21.539Z,99922.08
2018-05-29T03:35:52.727Z,99923.83
2018-05-29T03:36:23.920Z,99927.17
2018-05-29T03:36:55.159Z,99925.45
2018-05-29T03:37:26.336Z,99926.12
2018-05-29T03:37:57.513Z,99925.05
2018-05-29T03:38:28.684Z,99925.11
2018-05-29T03:38:59.865Z,99923.95
2018-05-29T03:39:31.057Z,99923.58
2018-05-29T03:40:02.238Z,99930.25
2018-05-29T03:40:33.420Z,99886.56
2018-05-29T03:41:04.619Z,99930.69
2018-05-29T03:41:35.809Z,99931.36
2018-05-29T03:42:07.046Z,99928.73
2018-05-29T03:42:38.270Z,99935.06
2018-05-29T03:43:09.454Z,99927.06
2018-05-29T03:43:40.636Z,99937.94
2018-05-29T03:44:11.814Z,99935.09
2018-05-29T03:44:42.997Z,99934.84
2018-05-29T03:45:14.178Z,99934.70
2018-05-29T03:45:45.356Z,99935.02
2018-05-29T03:46:16.534Z,99938.22
2018-05-29T03:46:47.717Z,99936.41
2018-05-29T03:47:18.945Z,99937.53
2018-05-29T03:47:50.128Z,99934.77
2018-05-29T03:48:21.307Z,99937.73
2018-05-29T03:48:52.496Z,99935.98
2018-05-29T03:49:23.685Z,99936.48
2018-05-29T03:49:54.878Z,99938.03
2018-05-29T03:50:26.060Z,99941.51
2018-05-29T03:50:57.229Z,99936.69
2018-05-29T03:51:28.422Z,99935.97
2018-05-29T03:51:59.617Z,99935.16
2018-05-29T03:52:30.873Z,99931.34
2018-05-29T03:53:02.058Z,99938.97
2018-05-29T03:53:33.251Z,99933.26
2018-05-29T03:54:04.432Z,99931.63
2018-05-29T03:54:35.617Z,99929.70
2018-05-29T03:55:06.799Z,99935.98
2018-05-29T03:55:37.983Z,99933.80
2018-05-29T03:56:09.176Z,99933.22
2018-05-29T03:56:40.397Z,99939.52
2018-05-29T03:57:11.600Z,99939.63
2018-05-29T03:57:42.932Z,99938.56
2018-05-29T03:58:14.122Z,99941.34
2018-05-29T03:58:45.308Z,99939.91
2018-05-29T03:59:16.489Z,99945.72
2018-05-29T03:59:47.679Z,99944.64
2018-05-29T04:00:18.866Z,99938.98
2018-05-29T04:00:50.054Z,99935.43
2018-05-29T04:01:21.244Z,99941.61
2018-05-29T04:01:52.446Z,99938.89
2018-05-29T04:02:23.640Z,99934.28
2018-05-29T04:02:54.964Z,99936.23
2018-05-29T04:03:26.145Z,99935.23
2018-05-29T04:03:57.328Z,99933.55
2018-05-29T04:04:28.515Z,99934.27
2018-05-29T04:04:59.753Z,99935.19
2018-05-29T04:05:30.934Z,99931.18
2018-05-29T04:06:02.114Z,99931.76
2018-05-29T04:06:33.297Z,99931.77
2018-05-29T04:07:04.477Z,99927.24
2018-05-29T04:07:35.653Z,99931.56
2018-05-29T04:08:06.874Z,99930.20
2018-05-29T04:08:38.060Z,99931.52
2018-05-29T04:09:09.237Z,99932.53
2018-05-29T04:09:40.424Z,99932.82
2018-05-29T04:10:11.608Z,99934.75
2018-05-29T04:10:42.838Z,99937.52
2018-05-29T04:11:14.028Z,99932.93
2018-05-29T04:11:45.258Z,99938.06
2018-05-29T04:12:16.474Z,99929.62
2018-05-29T04:12:48.675Z,99931.16
2018-05-29T04:13:19.869Z,99935.71
2018-05-29T04:13:51.049Z,99931.66
2018-05-29T04:14:22.233Z,99931.78
2018-05-29T04:14:53.412Z,99933.37
2018-05-29T04:15:24.593Z,99939.84
2018-05-29T04:15:55.817Z,99930.46
2018-05-29T04:16:26.999Z,99935.86
2018-05-29T04:16:58.188Z,99939.23
2018-05-29T04:17:29.397Z,99937.91
2018-05-29T04:18:00.576Z,99944.52
2018-05-29T04:18:31.757Z,99943.68
2018-05-29T04:19:02.951Z,99936.76
2018-05-29T04:19:34.133Z,99938.29
2018-05-29T04:20:05.321Z,99933.45
2018-05-29T04:20:36.504Z,99935.41
2018-05-29T04:21:07.723Z,99939.61
2018-05-29T04:21:38.911Z,99944.90
2018-05-29T04:22:10.093Z,99932.76
2018-05-29T04:22:41.406Z,99932.71
2018-05-29T04:23:12.590Z,99929.19
2018-05-29T04:23:43.768Z,99931.52
2018-05-29T04:24:14.961Z,99931.30
2018-05-29T04:24:46.145Z,99925.98
2018-05-29T04:25:17.354Z,99930.17
2018-05-29T04:25:48.529Z,99925.37
2018-05-29T04:26:19.708Z,99929.70
2018-05-29T04:26:50.891Z,99925.55
2018-05-29T04:27:22.078Z,99925.34
2018-05-29T04:27:53.293Z,99926.30
2018-05-29T04:28:24.477Z,99921.85
2018-05-29T04:28:55.661Z,99921.72
2018-05-29T04:29:26.848Z,99921.96
2018-05-29T04:29:58.069Z,99928.19
2018-05-29T04:30:29.248Z,99920.42
2018-05-29T04:31:00.437Z,99928.91
2018-05-29T04:31:31.619Z,99914.80
2018-05-29T04:32:02.797Z,99921.42
2018-05-29T04:32:33.984Z,99924.40
2018-05-29T04:33:05.199Z,99927.61
2018-05-29T04:33:37.482Z,99926.28
2018-05-29T04:34:08.674Z,99930.09
2018-05-29T04:34:39.857Z,99916.28
2018-05-29T04:35:11.049Z,99919.46
2018-05-29T04:35:42.236Z,99928.41
2018-05-29T04:36:13.418Z,99923.88
2018-05-29T04:36:44.600Z,99924.81
2018-05-29T04:37:15.790Z,99924.53
2018-05-29T04:37:46.965Z,99928.97
2018-05-29T04:38:18.165Z,99928.77
2018-05-29T04:38:49.392Z,99927.17
2018-05-29T04:39:20.578Z,99925.97
2018-05-29T04:39:51.756Z,99925.05
2018-05-29T04:40:22.941Z,99927.39
2018-05-29T04:40:54.132Z,99927.71
2018-05-29T04:41:25.314Z,99926.29
2018-05-29T04:41:56.497Z,99928.47
2018-05-29T04:42:27.681Z,99931.59
2018-05-29T04:42:58.873Z,99930.66
2018-05-29T04:43:30.110Z,99933.94
2018-05-29T04:44:01.293Z,99933.09
2018-05-29T04:44:32.510Z,99936.47
2018-05-29T04:45:03.685Z,99937.34
2018-05-29T04:45:34.876Z,99932.34
2018-05-29T04:46:06.058Z,99932.50
2018-05-29T04:46:37.250Z,99936.44
2018-05-29T04:47:08.491Z,99936.02
2018-05-29T04:47:39.710Z,99938.47
2018-05-29T04:48:10.902Z,99937.91
2018-05-29T04:48:42.137Z,99936.81
2018-05-29T04:49:13.313Z,99936.36
2018-05-29T04:49:44.548Z,99940.94
2018-05-29T04:50:15.709Z,99937.50
2018-05-29T04:50:46.911Z,99940.76
2018-05-29T04:51:18.089Z,99933.84
2018-05-29T04:51:49.281Z,99942.25
2018-05-29T04:52:20.469Z,99939.28
2018-05-29T04:52:51.660Z,99938.41
2018-05-29T04:53:22.844Z,99899.95
2018-05-29T04:53:54.094Z,99941.77
2018-05-29T04:54:25.292Z,99934.05
2018-05-29T04:54:56.511Z,99940.44
2018-05-29T04:55:27.701Z,99940.56
2018-05-29T04:55:58.934Z,99934.53
2018-05-29T04:56:30.169Z,99941.38
2018-05-29T04:57:01.338Z,99938.50
2018-05-29T04:57:32.525Z,99935.08
2018-05-29T04:58:03.717Z,99934.34
2018-05-29T04:58:34.900Z,99932.66
2018-05-29T04:59:06.120Z,99936.50
2018-05-29T04:59:37.330Z,99934.98
2018-05-29T05:00:08.530Z,99935.02
2018-05-29T05:00:39.741Z,99935.22
2018-05-29T05:01:10.977Z,99937.02
2018-05-29T05:01:42.170Z,99936.62
2018-05-29T05:02:13.346Z,99935.58
2018-05-29T05:02:44.531Z,99938.21
2018-05-29T05:03:15.708Z,99937.61
2018-05-29T05:03:46.943Z,99942.25
2018-05-29T05:04:18.173Z,99943.35
2018-05-29T05:04:49.348Z,99944.39
2018-05-29T05:05:20.521Z,99942.38
2018-05-29T05:05:51.711Z,99944.27
2018-05-29T05:06:22.913Z,99941.05
2018-05-29T05:06:54.093Z,99946.84
2018-05-29T05:07:25.268Z,99941.30
2018-05-29T05:07:56.441Z,99948.81
2018-05-29T05:08:27.618Z,99943.59
2018-05-29T05:08:58.862Z,99948.94
2018-05-29T05:09:30.051Z,99944.05
2018-05-29T05:10:01.225Z,99941.58
2018-05-29T05:10:32.408Z,99942.00
2018-05-29T05:11:03.598Z,99946.40
2018-05-29T05:11:34.825Z,99946.61
2018-05-29T05:12:06.016Z,99950.19
2018-05-29T05:12:37.228Z,99948.98
2018-05-29T05:13:08.408Z,99941.16
2018-05-29T05:13:39.584Z,99946.66
2018-05-29T05:14:10.809Z,99949.02
2018-05-29T05:14:41.988Z,99948.56
2018-05-29T05:15:13.251Z,99949.66
2018-05-29T05:15:44.430Z,99945.89
2018-05-29T05:16:15.612Z,99952.16
2018-05-29T05:16:46.844Z,99950.58
2018-05-29T05:17:18.028Z,99945.03
2018-05-29T05:17:49.301Z,99948.05
2018-05-29T05:18:20.481Z,99945.10
2018-05-29T05:18:51.669Z,99947.20
2018-05-29T05:19:22.876Z,99939.13
2018-05-29T05:19:54.060Z,99947.45
2018-05-29T05:20:25.277Z,99947.31
2018-05-29T05:20:56.452Z,99942.89
2018-05-29T05:21:27.645Z,99944.95
2018-05-29T05:21:59.009Z,99947.18
2018-05-29T05:22:30.233Z,99950.22
2018-05-29T05:23:01.415Z,99946.14
2018-05-29T05:23:32.625Z,99941.23
2018-05-29T05:24:03.811Z,99940.25
2018-05-29T05:24:35.000Z,99939.06
2018-05-29T05:25:06.172Z,99940.27
2018-05-29T05:25:37.349Z,99948.70
2018-05-29T05:26:08.525Z,99943.60
2018-05-29T05:26:39.711Z,99945.77
2018-05-29T05:27:10.888Z,99944.70
2018-05-29T05:27:42.114Z,99950.36
2018-05-29T05:28:13.293Z,99957.78
2018-05-29T05:28:44.468Z,99955.30
2018-05-29T05:29:15.652Z,99945.30
2018-05-29T05:29:46.834Z,99949.27
2018-05-29T05:30:18.012Z,99948.95
2018-05-29T05:30:49.200Z,99951.28
2018-05-29T05:31:20.405Z,99951.38
2018-05-29T05:31:51.664Z,99951.92
2018-05-29T05:32:22.850Z,99947.17
2018-05-29T05:32:54.096Z,99948.94
2018-05-29T05:33:25.274Z,99941.22
2018-05-29T05:33:56.458Z,99950.11
2018-05-29T05:34:27.665Z,99948.74
2018-05-29T05:34:58.848Z,99954.31
2018-05-29T05:35:30.025Z,99949.49
2018-05-29T05:36:01.201Z,99945.05
2018-05-29T05:36:32.482Z,99945.82
2018-05-29T05:37:03.679Z,99947.41
2018-05-29T05:37:34.856Z,99947.09
2018-05-29T05:38:06.029Z,99947.91
2018-05-29T05:38:37.201Z,99947.64
2018-05-29T05:39:08.381Z,99946.22
2018-05-29T05:39:39.590Z,99943.84
2018-05-29T05:40:10.761Z,99949.00
2018-05-29T05:40:41.954Z,99939.22
2018-05-29T05:41:13.129Z,99941.94
2018-05-29T05:41:44.380Z,99942.25
2018-05-29T05:42:15.571Z,99942.87
2018-05-29T05:42:46.832Z,99943.06
2018-05-29T05:43:18.013Z,99946.91
2018-05-29T05:43:49.290Z,99944.03
2018-05-29T05:44:20.493Z,99945.60
2018-05-29T05:44:51.698Z,99947.63
2018-05-29T05:45:22.885Z,99951.61
2018-05-29T05:45:54.069Z,99949.91
2018-05-29T05:46:25.245Z,99949.02
2018-05-29T05:46:56.465Z,99947.74
2018-05-29T05:47:27.652Z,99956.11
2018-05-29T05:47:59.481Z,99951.56
2018-05-29T05:48:30.649Z,99952.53
2018-05-29T05:49:01.833Z,99953.69
2018-05-29T05:49:33.013Z,99947.15
2018-05-29T05:50:04.226Z,99954.95
2018-05-29T05:50:35.424Z,99953.24
2018-05-29T05:51:06.607Z,99949.72
2018-05-29T05:51:37.805Z,99952.17
2018-05-29T05:52:09.023Z,99951.14
2018-05-29T05:52:40.233Z,99950.77
2018-05-29T05:53:11.470Z,99950.45
2018-05-29T05:53:42.675Z,99953.73
2018-05-29T05:54:13.857Z,99955.97
2018-05-29T05:54:45.029Z,99952.29
2018-05-29T05:55:16.230Z,99948.21
2018-05-29T05:55:47.407Z,99946.53
2018-05-29T05:56:18.603Z,99948.03
2018-05-29T05:56:49.804Z,99956.82
2018-05-29T05:57:20.985Z,99949.86
2018-05-29T05:57:52.170Z,99956.33
2018-05-29T05:58:24.089Z,99955.97
2018-05-29T05:58:56.026Z,99951.00
2018-05-29T05:59:27.212Z,99951.65
2018-05-29T05:59:58.469Z,99950.65
2018-05-29T06:00:29.660Z,99955.86
2018-05-29T06:01:00.850Z,99952.31
2018-05-29T06:01:32.036Z,99956.78
2018-05-29T06:02:03.236Z,99951.70
2018-05-29T06:02:34.529Z,99951.80
2018-05-29T06:03:05.721Z,99948.63
2018-05-29T06:03:36.915Z,99956.33
2018-05-29T06:04:08.157Z,99947.64
2018-05-29T06:04:39.332Z,99945.64
2018-05-29T06:05:10.688Z,99950.58
2018-05-29T06:05:41.880Z,99945.00
2018-05-29T06:06:13.069Z,99947.58